Terminal Aerodrome Forecast
Issued by NWS

Home | Current Version | Previous Version | Text Only | Print | Product List | Glossary On
Versions: 1 2 3 4 5 6 7 8 9 10 11 12 13 14 15 16 17 18 19 20 21 22 23 24 25 26 27 28 29 30 31 32 33 34 35 36 37 38
000
FTUS42 KRAH 191125
TAFRWI
TAF
KRWI 191125Z 1912/2012 10005KT 4SM BR OVC007
      TEMPO 1912/1914 1/2SM FG
     FM191600 09008KT 3SM -SHRA BR OVC009
     FM191900 10011KT 1 1/2SM -SHRA BR OVC004
     FM192300 13011KT 1 1/2SM -RA BR OVC004
     FM200600 17010KT 3SM BR OVC004=

USA.gov is the U.S. government's official web portal to all federal, state and local government web resources and services.